Cosco Tengfei — HPMO — position and weather

sailwx.info

Track history (hours):
 
Tides and Currents Weather Stations Pressure Air Temp Water Temp Dewpoint Dewpoint Depression Visibility Wind Speed Wind Dir Waves Ship Positions

Cosco Tengfei

Last reported at 2018-Feb-20 23:15 UTC. Time now 2018-Feb-24 18:07 UTC.
Position N 31°06' E 122°25'.

Length 183 m; draft 9.3 m.

Type: Cargo ship. MMSI: 355518000.

Date/timePositionNaut miles runAvg speedWind from/ knotsBaromVisibWave heightAir tempDewpointWater temp
2018-Feb-20 23:15N 31°06' E 122°25'514.4
2018-Feb-20 22:56N 31°06' E 122°20'611.9
2018-Feb-20 22:27N 31°09' E 122°14'612.5
2018-Feb-20 22:00N 31°12' E 122°09'712.6
2018-Feb-20 21:29N 31°15' E 122°01'510.2
2018-Feb-20 20:57N 31°15' E 121°55'7 9.8
2018-Feb-20 20:14N 31°18' E 121°47'6 0.2
2018-Feb-19 15:11N 31°16' E 121°55'413.3
2018-Feb-19 14:54N 31°15' E 121°59'713.0
2018-Feb-19 14:21N 31°13' E 122°07'514.2
2018-Feb-19 13:58N 31°10' E 122°12'612.1
2018-Feb-19 13:30N 31°07' E 122°17'713.5
2018-Feb-19 13:00N 31°07' E 122°25'  
2018-Feb-15 17:54N 34°02' E 137°48'817.5
2018-Feb-15 17:27N 34°05' E 137°56'817.4
2018-Feb-15 17:00N 34°08' E 138°05'816.1
2018-Feb-15 16:30N 34°12' E 138°13'815.7
2018-Feb-15 16:00N 34°15' E 138°22'815.1
2018-Feb-15 15:28N 34°19' E 138°31'714.7
2018-Feb-15 15:00N 34°22' E 138°38'814.9
2018-Feb-15 14:27N 34°25' E 138°48'714.6
2018-Feb-15 13:59N 34°27' E 138°55'715.1
2018-Feb-15 13:30N 34°30' E 139°03'714.8
2018-Feb-15 13:00N 34°34' E 139°11'1015.3
2018-Feb-15 12:19N 34°37' E 139°23'515.3
2018-Feb-15 12:00N 34°39' E 139°29'816.8
2018-Feb-15 11:31N 34°46' E 139°33'918.1
2018-Feb-15 10:59N 34°55' E 139°38'817.5
2018-Feb-15 10:30N 35°03' E 139°42'816.6
2018-Feb-15 10:00N 35°11' E 139°45'5 9.2
2018-Feb-15 09:31N 35°15' E 139°46'510.8
2018-Feb-15 09:01N 35°20' E 139°43'612.2
2018-Feb-15 08:30N 35°26' E 139°42'2 3.4
2018-Feb-15 07:59N 35°27' E 139°41'0 0.0
2018-Feb-15 07:27N 35°27' E 139°41'0 0.0
2018-Feb-15 07:00N 35°27' E 139°41'0 0.0
2018-Feb-15 06:30N 35°27' E 139°41'0 0.0
2018-Feb-15 05:59N 35°27' E 139°41'0 0.0
2018-Feb-15 05:29N 35°27' E 139°41'0 0.0
2018-Feb-15 04:59N 35°27' E 139°41'0 0.0
2018-Feb-15 04:30N 35°27' E 139°41'0 0.0
2018-Feb-15 03:59N 35°27' E 139°41'0 0.0
2018-Feb-15 03:29N 35°27' E 139°41'0 0.0
2018-Feb-15 02:59N 35°27' E 139°41'0 0.0
2018-Feb-15 02:29N 35°27' E 139°41'0 0.0
2018-Feb-15 01:59N 35°27' E 139°41'0 0.0
2018-Feb-15 01:30N 35°27' E 139°41'0 0.0
2018-Feb-15 00:59N 35°27' E 139°41'0 0.0
2018-Feb-15 00:29N 35°27' E 139°41'0 0.0
2018-Feb-14 23:59N 35°27' E 139°41'0 0.0
2018-Feb-14 23:29N 35°27' E 139°41'0 0.0
2018-Feb-14 22:59N 35°27' E 139°41'0 0.0
2018-Feb-14 22:29N 35°27' E 139°41'0 0.5
2018-Feb-14 22:01N 35°27' E 139°41'2 4.8
2018-Feb-14 21:30N 35°26' E 139°44'0 0.3
2018-Feb-14 20:56N 35°26' E 139°44'0 0.0
2018-Feb-14 20:29N 35°26' E 139°44'0 0.0
2018-Feb-14 19:59N 35°26' E 139°44'0 0.0
2018-Feb-14 19:30N 35°26' E 139°44'0 0.0
2018-Feb-14 18:59N 35°26' E 139°44'0 0.0
2018-Feb-14 18:29N 35°26' E 139°44'0 0.1
2018-Feb-14 18:00N 35°26' E 139°44'0 0.8
2018-Feb-14 17:30N 35°25' E 139°44'4 8.8
2018-Feb-14 17:00N 35°21' E 139°43'612.4
2018-Feb-14 16:30N 35°16' E 139°47'611.9
2018-Feb-14 16:00N 35°10' E 139°46'714.5
2018-Feb-14 15:30N 35°03' E 139°44'815.6
2018-Feb-14 15:00N 34°55' E 139°40'816.4
2018-Feb-14 14:30N 34°48' E 139°37'1017.1
2018-Feb-14 13:57N 34°39' E 139°31'1320.8
2018-Feb-14 13:21N 34°36' E 139°17'720.0
2018-Feb-14 12:59N 34°33' E 139°09'919.6
2018-Feb-14 12:30N 34°29' E 138°58'1418.7
2018-Feb-14 11:44N 34°26' E 138°41'519.3
2018-Feb-14 11:29N 34°26' E 138°35'918.4
2018-Feb-14 11:00N 34°26' E 138°25'918.5
2018-Feb-14 10:30N 34°27' E 138°14'1717.9
2018-Feb-14 09:35N 34°27' E 137°54'317.7
2018-Feb-14 09:25N 34°27' E 137°50'717.2
2018-Feb-14 09:00N 34°27' E 137°41'2117.4
2018-Feb-14 07:46N 34°28' E 137°15'1214.8
2018-Feb-14 06:59N 34°32' E 137°02'1114.2
2018-Feb-14 06:14N 34°39' E 136°52'315.3
2018-Feb-14 06:01N 34°41' E 136°49'816.4
2018-Feb-14 05:30N 34°49' E 136°46'816.0
2018-Feb-14 05:01N 34°57' E 136°47'612.6
2018-Feb-14 04:30N 35°02' E 136°51'2 3.8
2018-Feb-14 03:58N 35°04' E 136°53'0 0.1
2018-Feb-14 03:28N 35°04' E 136°53'0 0.1
2018-Feb-14 02:58N 35°04' E 136°53'0 0.0
2018-Feb-14 02:28N 35°04' E 136°53'0 0.0
2018-Feb-14 01:58N 35°04' E 136°53'0 0.0
2018-Feb-14 01:28N 35°04' E 136°53'0 0.0
2018-Feb-14 00:58N 35°04' E 136°53'0 0.0
2018-Feb-14 00:31N 35°04' E 136°53'0 0.0
2018-Feb-13 23:58N 35°04' E 136°53'0 0.0
2018-Feb-13 23:28N 35°04' E 136°53'0 0.1
2018-Feb-13 22:58N 35°04' E 136°53'0 0.1
2018-Feb-13 22:28N 35°04' E 136°53'0 0.0
2018-Feb-13 22:01N 35°04' E 136°53'1 1.1
2018-Feb-13 21:30N 35°03' E 136°53'5 9.4
2018-Feb-13 21:00N 34°59' E 136°49'612.6
2018-Feb-13 20:30N 34°53' E 136°46'3 6.1
2018-Feb-13 19:58N 34°51' E 136°44'0 0.2
2018-Feb-13 19:28N 34°51' E 136°44'0 0.1
2018-Feb-13 18:58N 34°51' E 136°44'0 0.1
2018-Feb-13 18:28N 34°51' E 136°44'0 0.1
2018-Feb-13 17:58N 34°51' E 136°44'0 0.1
2018-Feb-13 17:28N 34°51' E 136°44'0 0.1
2018-Feb-13 16:58N 34°51' E 136°44'0 0.1
2018-Feb-13 16:25N 34°51' E 136°44'0 0.0
2018-Feb-13 15:58N 34°51' E 136°44'0 0.0
2018-Feb-13 15:28N 34°51' E 136°44'0 0.0
2018-Feb-13 14:58N 34°51' E 136°44'0 0.0
2018-Feb-13 14:28N 34°51' E 136°44'0 0.0
2018-Feb-13 13:58N 34°51' E 136°44'0 0.0
2018-Feb-13 13:28N 34°51' E 136°44'0 0.0
2018-Feb-13 12:58N 34°51' E 136°44'0 0.1
2018-Feb-13 12:28N 34°51' E 136°44'0 0.1
2018-Feb-13 11:58N 34°51' E 136°44'0 0.1
2018-Feb-13 11:28N 34°51' E 136°44'0 0.1
2018-Feb-13 10:58N 34°51' E 136°44'0 0.1
2018-Feb-13 10:28N 34°51' E 136°44'0 0.0
2018-Feb-13 09:58N 34°51' E 136°44'0 0.1
2018-Feb-13 09:28N 34°51' E 136°44'0 0.0
2018-Feb-13 08:58N 34°51' E 136°44'0 0.0
2018-Feb-13 08:22N 34°51' E 136°44'0 0.1
2018-Feb-13 07:58N 34°51' E 136°44'0 0.0
2018-Feb-13 07:28N 34°51' E 136°44'0 0.0
2018-Feb-13 06:58N 34°51' E 136°44'0 0.0
2018-Feb-13 06:28N 34°51' E 136°44'0 0.0
2018-Feb-13 05:58N 34°51' E 136°44'0 0.0
2018-Feb-13 05:28N 34°51' E 136°44'0 0.0
2018-Feb-13 04:58N 34°51' E 136°44'0 0.0
2018-Feb-13 04:28N 34°51' E 136°44'0 0.1
2018-Feb-13 03:58N 34°51' E 136°44'0 0.0
2018-Feb-13 03:28N 34°51' E 136°44'0 0.0
2018-Feb-13 02:58N 34°51' E 136°44'0 0.1
2018-Feb-13 02:28N 34°51' E 136°44'0 0.1
2018-Feb-13 01:58N 34°51' E 136°44'0 0.0
2018-Feb-13 01:28N 34°51' E 136°44'0 0.0
2018-Feb-13 00:58N 34°51' E 136°44'0 0.0
2018-Feb-13 00:28N 34°51' E 136°44'0 0.1
2018-Feb-12 23:58N 34°51' E 136°44'0 0.0
2018-Feb-12 23:28N 34°51' E 136°44'0 0.0
2018-Feb-12 22:58N 34°51' E 136°44'0 0.0
2018-Feb-12 22:28N 34°51' E 136°44'0 0.0
2018-Feb-12 21:58N 34°51' E 136°44'0 0.0
2018-Feb-12 21:28N 34°51' E 136°44'0 0.0
2018-Feb-12 20:58N 34°51' E 136°44'0 0.0
2018-Feb-12 20:28N 34°51' E 136°44'0 0.0
2018-Feb-12 19:58N 34°51' E 136°44'0 0.0
2018-Feb-12 19:28N 34°51' E 136°44'0 0.0
2018-Feb-12 18:58N 34°51' E 136°44'0 0.0
2018-Feb-12 18:28N 34°51' E 136°44'0 0.0
2018-Feb-12 17:58N 34°51' E 136°44'0 0.0
2018-Feb-12 17:28N 34°51' E 136°44'0 0.0
2018-Feb-12 16:58N 34°51' E 136°44'0 0.0
2018-Feb-12 16:28N 34°51' E 136°44'0 0.1
2018-Feb-12 15:58N 34°51' E 136°44'0 0.0
2018-Feb-12 15:16N 34°51' E 136°44'0 0.0
2018-Feb-12 14:58N 34°51' E 136°44'0 0.0
2018-Feb-12 14:28N 34°51' E 136°44'0 0.0
2018-Feb-12 13:58N 34°51' E 136°44'0 0.0
2018-Feb-12 13:28N 34°51' E 136°44'0 0.0
2018-Feb-12 12:58N 34°51' E 136°44'0 0.0
2018-Feb-12 12:28N 34°51' E 136°44'0 0.0
2018-Feb-12 11:58N 34°51' E 136°44'0 0.0
2018-Feb-12 11:28N 34°51' E 136°44'0 0.0
2018-Feb-12 10:58N 34°51' E 136°44'0 0.0
2018-Feb-12 10:28N 34°51' E 136°44'0 0.0
2018-Feb-12 09:58N 34°51' E 136°44'0 0.0
2018-Feb-12 09:28N 34°51' E 136°44'0 0.0
2018-Feb-12 08:55N 34°51' E 136°44'0 0.0
2018-Feb-12 08:25N 34°51' E 136°44'0 0.1
2018-Feb-12 07:58N 34°51' E 136°44'0 0.1
2018-Feb-12 07:28N 34°51' E 136°44'0 0.0
2018-Feb-12 06:58N 34°51' E 136°44'0 0.1
2018-Feb-12 06:28N 34°51' E 136°44'0 0.1
2018-Feb-12 05:58N 34°51' E 136°44'0 0.1
2018-Feb-12 05:28N 34°51' E 136°44'0 0.1
2018-Feb-12 04:58N 34°51' E 136°44'0 0.1
2018-Feb-12 04:28N 34°51' E 136°44'0 0.0
2018-Feb-12 03:58N 34°51' E 136°44'0 0.0
2018-Feb-12 03:28N 34°51' E 136°44'0 0.1
2018-Feb-12 02:58N 34°51' E 136°44'0 0.0
2018-Feb-12 02:28N 34°51' E 136°44'0 0.1
2018-Feb-12 01:58N 34°51' E 136°44'0 0.2
2018-Feb-12 01:30N 34°51' E 136°44'1 1.2
2018-Feb-12 00:59N 34°51' E 136°43'0 0.8
2018-Feb-12 00:26N 34°52' E 136°43'0 0.2
2018-Feb-11 23:59N 34°52' E 136°43'0 0.2
2018-Feb-11 23:29N 34°52' E 136°43'0 0.0
2018-Feb-11 22:56N 34°52' E 136°43'0 0.0
2018-Feb-11 22:29N 34°52' E 136°43'0 0.0
2018-Feb-11 21:59N 34°52' E 136°43'0 0.0
2018-Feb-11 21:29N 34°52' E 136°43'0 0.0
2018-Feb-11 20:59N 34°52' E 136°43'0 0.0
2018-Feb-11 20:29N 34°52' E 136°43'0 0.1
2018-Feb-11 19:56N 34°52' E 136°43'0 0.0
2018-Feb-11 19:23N 34°52' E 136°43'0 0.0
2018-Feb-11 18:56N 34°52' E 136°43'0 0.0
2018-Feb-11 18:29N 34°52' E 136°43'0 0.0
2018-Feb-11 17:56N 34°52' E 136°43'0 0.0
2018-Feb-11 17:26N 34°52' E 136°43'0 0.1
2018-Feb-11 17:00N 34°52' E 136°43'0 0.0
2018-Feb-11 16:30N 34°52' E 136°43'0 0.0
2018-Feb-11 16:00N 34°52' E 136°43'0 0.0
2018-Feb-11 15:30N 34°52' E 136°43'0 0.0
2018-Feb-11 14:59N 34°52' E 136°43'0 0.0
2018-Feb-11 14:29N 34°52' E 136°43'0 0.0
2018-Feb-11 14:00N 34°52' E 136°43'0 0.1
2018-Feb-11 13:29N 34°52' E 136°43'0 0.1
2018-Feb-11 12:59N 34°52' E 136°43'0 0.1
2018-Feb-11 12:29N 34°52' E 136°43'0 0.1
2018-Feb-11 11:56N 34°52' E 136°43'0 0.1
2018-Feb-11 11:26N 34°52' E 136°43'0 0.0
2018-Feb-11 10:59N 34°52' E 136°43'0 0.1
2018-Feb-11 10:29N 34°52' E 136°43'0 0.1
2018-Feb-11 09:56N 34°52' E 136°43'0 0.1
2018-Feb-11 09:29N 34°52' E 136°43'0 0.0
2018-Feb-11 08:56N 34°52' E 136°43'0 0.1
2018-Feb-11 08:29N 34°52' E 136°43'0 0.0
2018-Feb-11 07:56N 34°52' E 136°43'0 0.0
2018-Feb-11 07:29N 34°52' E 136°43'0 0.2
2018-Feb-11 06:59N 34°52' E 136°43'0 0.1
2018-Feb-11 06:29N 34°52' E 136°43'0 0.0
2018-Feb-11 05:59N 34°52' E 136°43'0 0.1
2018-Feb-11 05:29N 34°52' E 136°43'0 0.1
2018-Feb-11 04:56N 34°52' E 136°43'0 0.0
2018-Feb-11 04:29N 34°52' E 136°43'0 0.1
2018-Feb-11 03:56N 34°52' E 136°43'0 0.1
2018-Feb-11 03:29N 34°52' E 136°43'0 0.0
2018-Feb-11 02:59N 34°52' E 136°43'0 0.0
2018-Feb-11 02:29N 34°52' E 136°43'0 0.1
2018-Feb-11 01:59N 34°52' E 136°43'0 0.1
2018-Feb-11 01:26N 34°52' E 136°43'0 0.4
2018-Feb-11 00:59N 34°52' E 136°43'0 0.2
2018-Feb-11 00:26N 34°52' E 136°43'0 0.1
2018-Feb-10 23:59N 34°52' E 136°43'0 0.0
2018-Feb-10 23:29N 34°52' E 136°43'  
Track history (hours):
 
Tides and Currents Weather Stations Pressure Air Temp Water Temp Dewpoint Dewpoint Depression Visibility Wind Speed Wind Dir Waves Ship Positions

Cosco Tengfei

Last reported at 2018-Feb-20 23:15 UTC. Time now 2018-Feb-24 18:07 UTC.
Position N 31°06' E 122°25'.

Length 183 m; draft 9.3 m.

Type: Cargo ship. MMSI: 355518000.

Date/timePositionNaut miles runAvg speedWind from/ knotsBaromVisibWave heightAir tempDewpointWater temp
2018-Feb-20 23:15N 31°06' E 122°25'514.4
2018-Feb-20 22:56N 31°06' E 122°20'611.9
2018-Feb-20 22:27N 31°09' E 122°14'612.5
2018-Feb-20 22:00N 31°12' E 122°09'712.6
2018-Feb-20 21:29N 31°15' E 122°01'510.2
2018-Feb-20 20:57N 31°15' E 121°55'7 9.8
2018-Feb-20 20:14N 31°18' E 121°47'6 0.2
2018-Feb-19 15:11N 31°16' E 121°55'413.3
2018-Feb-19 14:54N 31°15' E 121°59'713.0
2018-Feb-19 14:21N 31°13' E 122°07'514.2
2018-Feb-19 13:58N 31°10' E 122°12'612.1
2018-Feb-19 13:30N 31°07' E 122°17'713.5
2018-Feb-19 13:00N 31°07' E 122°25'  
2018-Feb-15 17:54N 34°02' E 137°48'817.5
2018-Feb-15 17:27N 34°05' E 137°56'817.4
2018-Feb-15 17:00N 34°08' E 138°05'816.1
2018-Feb-15 16:30N 34°12' E 138°13'815.7
2018-Feb-15 16:00N 34°15' E 138°22'815.1
2018-Feb-15 15:28N 34°19' E 138°31'714.7
2018-Feb-15 15:00N 34°22' E 138°38'814.9
2018-Feb-15 14:27N 34°25' E 138°48'714.6
2018-Feb-15 13:59N 34°27' E 138°55'715.1
2018-Feb-15 13:30N 34°30' E 139°03'714.8
2018-Feb-15 13:00N 34°34' E 139°11'1015.3
2018-Feb-15 12:19N 34°37' E 139°23'515.3
2018-Feb-15 12:00N 34°39' E 139°29'816.8
2018-Feb-15 11:31N 34°46' E 139°33'918.1
2018-Feb-15 10:59N 34°55' E 139°38'817.5
2018-Feb-15 10:30N 35°03' E 139°42'816.6
2018-Feb-15 10:00N 35°11' E 139°45'5 9.2
2018-Feb-15 09:31N 35°15' E 139°46'510.8
2018-Feb-15 09:01N 35°20' E 139°43'612.2
2018-Feb-15 08:30N 35°26' E 139°42'2 3.4
2018-Feb-15 07:59N 35°27' E 139°41'0 0.0
2018-Feb-15 07:27N 35°27' E 139°41'0 0.0
2018-Feb-15 07:00N 35°27' E 139°41'0 0.0
2018-Feb-15 06:30N 35°27' E 139°41'0 0.0
2018-Feb-15 05:59N 35°27' E 139°41'0 0.0
2018-Feb-15 05:29N 35°27' E 139°41'0 0.0
2018-Feb-15 04:59N 35°27' E 139°41'0 0.0
2018-Feb-15 04:30N 35°27' E 139°41'0 0.0
2018-Feb-15 03:59N 35°27' E 139°41'0 0.0
2018-Feb-15 03:29N 35°27' E 139°41'0 0.0
2018-Feb-15 02:59N 35°27' E 139°41'0 0.0
2018-Feb-15 02:29N 35°27' E 139°41'0 0.0
2018-Feb-15 01:59N 35°27' E 139°41'0 0.0
2018-Feb-15 01:30N 35°27' E 139°41'0 0.0
2018-Feb-15 00:59N 35°27' E 139°41'0 0.0
2018-Feb-15 00:29N 35°27' E 139°41'0 0.0
2018-Feb-14 23:59N 35°27' E 139°41'0 0.0
2018-Feb-14 23:29N 35°27' E 139°41'0 0.0
2018-Feb-14 22:59N 35°27' E 139°41'0 0.0
2018-Feb-14 22:29N 35°27' E 139°41'0 0.5
2018-Feb-14 22:01N 35°27' E 139°41'2 4.8
2018-Feb-14 21:30N 35°26' E 139°44'0 0.3
2018-Feb-14 20:56N 35°26' E 139°44'0 0.0
2018-Feb-14 20:29N 35°26' E 139°44'0 0.0
2018-Feb-14 19:59N 35°26' E 139°44'0 0.0
2018-Feb-14 19:30N 35°26' E 139°44'0 0.0
2018-Feb-14 18:59N 35°26' E 139°44'0 0.0
2018-Feb-14 18:29N 35°26' E 139°44'0 0.1
2018-Feb-14 18:00N 35°26' E 139°44'0 0.8
2018-Feb-14 17:30N 35°25' E 139°44'4 8.8
2018-Feb-14 17:00N 35°21' E 139°43'612.4
2018-Feb-14 16:30N 35°16' E 139°47'611.9
2018-Feb-14 16:00N 35°10' E 139°46'714.5
2018-Feb-14 15:30N 35°03' E 139°44'815.6
2018-Feb-14 15:00N 34°55' E 139°40'816.4
2018-Feb-14 14:30N 34°48' E 139°37'1017.1
2018-Feb-14 13:57N 34°39' E 139°31'1320.8
2018-Feb-14 13:21N 34°36' E 139°17'720.0
2018-Feb-14 12:59N 34°33' E 139°09'919.6
2018-Feb-14 12:30N 34°29' E 138°58'1418.7
2018-Feb-14 11:44N 34°26' E 138°41'519.3
2018-Feb-14 11:29N 34°26' E 138°35'918.4
2018-Feb-14 11:00N 34°26' E 138°25'918.5
2018-Feb-14 10:30N 34°27' E 138°14'1717.9
2018-Feb-14 09:35N 34°27' E 137°54'317.7
2018-Feb-14 09:25N 34°27' E 137°50'717.2
2018-Feb-14 09:00N 34°27' E 137°41'2117.4
2018-Feb-14 07:46N 34°28' E 137°15'1214.8
2018-Feb-14 06:59N 34°32' E 137°02'1114.2
2018-Feb-14 06:14N 34°39' E 136°52'315.3
2018-Feb-14 06:01N 34°41' E 136°49'816.4
2018-Feb-14 05:30N 34°49' E 136°46'816.0
2018-Feb-14 05:01N 34°57' E 136°47'612.6
2018-Feb-14 04:30N 35°02' E 136°51'2 3.8
2018-Feb-14 03:58N 35°04' E 136°53'0 0.1
2018-Feb-14 03:28N 35°04' E 136°53'0 0.1
2018-Feb-14 02:58N 35°04' E 136°53'0 0.0
2018-Feb-14 02:28N 35°04' E 136°53'0 0.0
2018-Feb-14 01:58N 35°04' E 136°53'0 0.0
2018-Feb-14 01:28N 35°04' E 136°53'0 0.0
2018-Feb-14 00:58N 35°04' E 136°53'0 0.0
2018-Feb-14 00:31N 35°04' E 136°53'0 0.0
2018-Feb-13 23:58N 35°04' E 136°53'0 0.0
2018-Feb-13 23:28N 35°04' E 136°53'0 0.1
2018-Feb-13 22:58N 35°04' E 136°53'0 0.1
2018-Feb-13 22:28N 35°04' E 136°53'0 0.0
2018-Feb-13 22:01N 35°04' E 136°53'1 1.1
2018-Feb-13 21:30N 35°03' E 136°53'5 9.4
2018-Feb-13 21:00N 34°59' E 136°49'612.6
2018-Feb-13 20:30N 34°53' E 136°46'3 6.1
2018-Feb-13 19:58N 34°51' E 136°44'0 0.2
2018-Feb-13 19:28N 34°51' E 136°44'0 0.1
2018-Feb-13 18:58N 34°51' E 136°44'0 0.1
2018-Feb-13 18:28N 34°51' E 136°44'0 0.1
2018-Feb-13 17:58N 34°51' E 136°44'0 0.1
2018-Feb-13 17:28N 34°51' E 136°44'0 0.1
2018-Feb-13 16:58N 34°51' E 136°44'0 0.1
2018-Feb-13 16:25N 34°51' E 136°44'0 0.0
2018-Feb-13 15:58N 34°51' E 136°44'0 0.0
2018-Feb-13 15:28N 34°51' E 136°44'0 0.0
2018-Feb-13 14:58N 34°51' E 136°44'0 0.0
2018-Feb-13 14:28N 34°51' E 136°44'0 0.0
2018-Feb-13 13:58N 34°51' E 136°44'0 0.0
2018-Feb-13 13:28N 34°51' E 136°44'0 0.0
2018-Feb-13 12:58N 34°51' E 136°44'0 0.1
2018-Feb-13 12:28N 34°51' E 136°44'0 0.1
2018-Feb-13 11:58N 34°51' E 136°44'0 0.1
2018-Feb-13 11:28N 34°51' E 136°44'0 0.1
2018-Feb-13 10:58N 34°51' E 136°44'0 0.1
2018-Feb-13 10:28N 34°51' E 136°44'0 0.0
2018-Feb-13 09:58N 34°51' E 136°44'0 0.1
2018-Feb-13 09:28N 34°51' E 136°44'0 0.0
2018-Feb-13 08:58N 34°51' E 136°44'0 0.0
2018-Feb-13 08:22N 34°51' E 136°44'0 0.1
2018-Feb-13 07:58N 34°51' E 136°44'0 0.0
2018-Feb-13 07:28N 34°51' E 136°44'0 0.0
2018-Feb-13 06:58N 34°51' E 136°44'0 0.0
2018-Feb-13 06:28N 34°51' E 136°44'0 0.0
2018-Feb-13 05:58N 34°51' E 136°44'0 0.0
2018-Feb-13 05:28N 34°51' E 136°44'0 0.0
2018-Feb-13 04:58N 34°51' E 136°44'0 0.0
2018-Feb-13 04:28N 34°51' E 136°44'0 0.1
2018-Feb-13 03:58N 34°51' E 136°44'0 0.0
2018-Feb-13 03:28N 34°51' E 136°44'0 0.0
2018-Feb-13 02:58N 34°51' E 136°44'0 0.1
2018-Feb-13 02:28N 34°51' E 136°44'0 0.1
2018-Feb-13 01:58N 34°51' E 136°44'0 0.0
2018-Feb-13 01:28N 34°51' E 136°44'0 0.0
2018-Feb-13 00:58N 34°51' E 136°44'0 0.0
2018-Feb-13 00:28N 34°51' E 136°44'0 0.1
2018-Feb-12 23:58N 34°51' E 136°44'0 0.0
2018-Feb-12 23:28N 34°51' E 136°44'0 0.0
2018-Feb-12 22:58N 34°51' E 136°44'0 0.0
2018-Feb-12 22:28N 34°51' E 136°44'0 0.0
2018-Feb-12 21:58N 34°51' E 136°44'0 0.0
2018-Feb-12 21:28N 34°51' E 136°44'0 0.0
2018-Feb-12 20:58N 34°51' E 136°44'0 0.0
2018-Feb-12 20:28N 34°51' E 136°44'0 0.0
2018-Feb-12 19:58N 34°51' E 136°44'0 0.0
2018-Feb-12 19:28N 34°51' E 136°44'0 0.0
2018-Feb-12 18:58N 34°51' E 136°44'0 0.0
2018-Feb-12 18:28N 34°51' E 136°44'0 0.0
2018-Feb-12 17:58N 34°51' E 136°44'0 0.0
2018-Feb-12 17:28N 34°51' E 136°44'0 0.0
2018-Feb-12 16:58N 34°51' E 136°44'0 0.0
2018-Feb-12 16:28N 34°51' E 136°44'0 0.1
2018-Feb-12 15:58N 34°51' E 136°44'0 0.0
2018-Feb-12 15:16N 34°51' E 136°44'0 0.0
2018-Feb-12 14:58N 34°51' E 136°44'0 0.0
2018-Feb-12 14:28N 34°51' E 136°44'0 0.0
2018-Feb-12 13:58N 34°51' E 136°44'0 0.0
2018-Feb-12 13:28N 34°51' E 136°44'0 0.0
2018-Feb-12 12:58N 34°51' E 136°44'0 0.0
2018-Feb-12 12:28N 34°51' E 136°44'0 0.0
2018-Feb-12 11:58N 34°51' E 136°44'0 0.0
2018-Feb-12 11:28N 34°51' E 136°44'0 0.0
2018-Feb-12 10:58N 34°51' E 136°44'0 0.0
2018-Feb-12 10:28N 34°51' E 136°44'0 0.0
2018-Feb-12 09:58N 34°51' E 136°44'0 0.0
2018-Feb-12 09:28N 34°51' E 136°44'0 0.0
2018-Feb-12 08:55N 34°51' E 136°44'0 0.0
2018-Feb-12 08:25N 34°51' E 136°44'0 0.1
2018-Feb-12 07:58N 34°51' E 136°44'0 0.1
2018-Feb-12 07:28N 34°51' E 136°44'0 0.0
2018-Feb-12 06:58N 34°51' E 136°44'0 0.1
2018-Feb-12 06:28N 34°51' E 136°44'0 0.1
2018-Feb-12 05:58N 34°51' E 136°44'0 0.1
2018-Feb-12 05:28N 34°51' E 136°44'0 0.1
2018-Feb-12 04:58N 34°51' E 136°44'0 0.1
2018-Feb-12 04:28N 34°51' E 136°44'0 0.0
2018-Feb-12 03:58N 34°51' E 136°44'0 0.0
2018-Feb-12 03:28N 34°51' E 136°44'0 0.1
2018-Feb-12 02:58N 34°51' E 136°44'0 0.0
2018-Feb-12 02:28N 34°51' E 136°44'0 0.1
2018-Feb-12 01:58N 34°51' E 136°44'0 0.2
2018-Feb-12 01:30N 34°51' E 136°44'1 1.2
2018-Feb-12 00:59N 34°51' E 136°43'0 0.8
2018-Feb-12 00:26N 34°52' E 136°43'0 0.2
2018-Feb-11 23:59N 34°52' E 136°43'0 0.2
2018-Feb-11 23:29N 34°52' E 136°43'0 0.0
2018-Feb-11 22:56N 34°52' E 136°43'0 0.0
2018-Feb-11 22:29N 34°52' E 136°43'0 0.0
2018-Feb-11 21:59N 34°52' E 136°43'0 0.0
2018-Feb-11 21:29N 34°52' E 136°43'0 0.0
2018-Feb-11 20:59N 34°52' E 136°43'0 0.0
2018-Feb-11 20:29N 34°52' E 136°43'0 0.1
2018-Feb-11 19:56N 34°52' E 136°43'0 0.0
2018-Feb-11 19:23N 34°52' E 136°43'0 0.0
2018-Feb-11 18:56N 34°52' E 136°43'0 0.0
2018-Feb-11 18:29N 34°52' E 136°43'0 0.0
2018-Feb-11 17:56N 34°52' E 136°43'0 0.0
2018-Feb-11 17:26N 34°52' E 136°43'0 0.1
2018-Feb-11 17:00N 34°52' E 136°43'0 0.0
2018-Feb-11 16:30N 34°52' E 136°43'0 0.0
2018-Feb-11 16:00N 34°52' E 136°43'0 0.0
2018-Feb-11 15:30N 34°52' E 136°43'0 0.0
2018-Feb-11 14:59N 34°52' E 136°43'0 0.0
2018-Feb-11 14:29N 34°52' E 136°43'0 0.0
2018-Feb-11 14:00N 34°52' E 136°43'0 0.1
2018-Feb-11 13:29N 34°52' E 136°43'0 0.1
2018-Feb-11 12:59N 34°52' E 136°43'0 0.1
2018-Feb-11 12:29N 34°52' E 136°43'0 0.1
2018-Feb-11 11:56N 34°52' E 136°43'0 0.1
2018-Feb-11 11:26N 34°52' E 136°43'0 0.0
2018-Feb-11 10:59N 34°52' E 136°43'0 0.1
2018-Feb-11 10:29N 34°52' E 136°43'0 0.1
2018-Feb-11 09:56N 34°52' E 136°43'0 0.1
2018-Feb-11 09:29N 34°52' E 136°43'0 0.0
2018-Feb-11 08:56N 34°52' E 136°43'0 0.1
2018-Feb-11 08:29N 34°52' E 136°43'0 0.0
2018-Feb-11 07:56N 34°52' E 136°43'0 0.0
2018-Feb-11 07:29N 34°52' E 136°43'0 0.2
2018-Feb-11 06:59N 34°52' E 136°43'0 0.1
2018-Feb-11 06:29N 34°52' E 136°43'0 0.0
2018-Feb-11 05:59N 34°52' E 136°43'0 0.1
2018-Feb-11 05:29N 34°52' E 136°43'0 0.1
2018-Feb-11 04:56N 34°52' E 136°43'0 0.0
2018-Feb-11 04:29N 34°52' E 136°43'0 0.1
2018-Feb-11 03:56N 34°52' E 136°43'0 0.1
2018-Feb-11 03:29N 34°52' E 136°43'0 0.0
2018-Feb-11 02:59N 34°52' E 136°43'0 0.0
2018-Feb-11 02:29N 34°52' E 136°43'0 0.1
2018-Feb-11 01:59N 34°52' E 136°43'0 0.1
2018-Feb-11 01:26N 34°52' E 136°43'0 0.4
2018-Feb-11 00:59N 34°52' E 136°43'0 0.2
2018-Feb-11 00:26N 34°52' E 136°43'0 0.1
2018-Feb-10 23:59N 34°52' E 136°43'0 0.0
2018-Feb-10 23:29N 34°52' E 136°43'  

Dump ship's entire track history